createdAt,value
2018-05-04T00:00:44.561Z,14.70
2018-05-04T00:03:12.832Z,14.60
2018-05-04T00:05:41.147Z,14.60
2018-05-04T00:08:08.659Z,14.60
2018-05-04T00:10:36.140Z,14.60
2018-05-04T00:13:03.703Z,14.60
2018-05-04T00:15:32.386Z,14.60
2018-05-04T00:18:06.897Z,14.50
2018-05-04T00:20:34.866Z,14.50
2018-05-04T00:23:02.445Z,14.50
2018-05-04T00:25:29.952Z,14.50
2018-05-04T00:27:57.495Z,14.50
2018-05-04T00:30:24.984Z,14.40
2018-05-04T00:32:52.514Z,14.40
2018-05-04T00:35:20.079Z,14.30
2018-05-04T00:37:47.646Z,14.40
2018-05-04T00:40:15.149Z,14.30
2018-05-04T00:42:42.678Z,14.30
2018-05-04T00:45:10.170Z,14.30
2018-05-04T00:47:37.706Z,14.30
2018-05-04T00:50:05.975Z,14.20
2018-05-04T00:52:34.288Z,14.20
2018-05-04T00:55:01.775Z,14.20
2018-05-04T00:57:29.268Z,14.20
2018-05-04T00:59:56.807Z,14.10
2018-05-04T01:02:24.305Z,14.10
2018-05-04T01:04:51.846Z,14.10
2018-05-04T01:07:19.336Z,14.10
2018-05-04T01:09:46.867Z,14.10
2018-05-04T01:12:15.124Z,14.10
2018-05-04T01:14:42.654Z,14.10
2018-05-04T01:17:10.158Z,14.10
2018-05-04T01:19:37.688Z,14.10
2018-05-04T01:22:05.205Z,14.10
2018-05-04T01:24:32.734Z,14.10
2018-05-04T01:27:00.224Z,14.10
2018-05-04T01:29:27.795Z,14.00
2018-05-04T01:31:55.297Z,14.00
2018-05-04T01:34:22.835Z,14.00
2018-05-04T01:36:50.325Z,14.00
2018-05-04T01:39:18.594Z,14.00
2018-05-04T01:41:46.908Z,14.00
2018-05-04T01:44:14.403Z,14.00
2018-05-04T01:46:41.938Z,14.00
2018-05-04T01:49:09.422Z,14.00
2018-05-04T01:51:36.955Z,14.00
2018-05-04T01:54:04.461Z,14.00
2018-05-04T01:56:31.992Z,13.90
2018-05-04T01:58:59.588Z,13.90
2018-05-04T02:01:27.135Z,13.90
2018-05-04T02:03:54.715Z,13.90
2018-05-04T02:06:22.252Z,13.90
2018-05-04T02:08:49.749Z,13.80
2018-05-04T02:11:17.319Z,13.80
2018-05-04T02:13:44.842Z,13.80
2018-05-04T02:16:13.153Z,13.80
2018-05-04T02:18:40.655Z,13.70
2018-05-04T02:21:08.152Z,13.80
2018-05-04T02:23:35.696Z,13.80
2018-05-04T02:26:03.950Z,13.70
2018-05-04T02:28:31.482Z,13.70
2018-05-04T02:30:58.991Z,13.70
2018-05-04T02:33:26.530Z,13.70
2018-05-04T02:35:54.022Z,13.70
2018-05-04T02:38:21.554Z,13.70
2018-05-04T02:40:49.057Z,13.60
2018-05-04T02:43:16.604Z,13.70
2018-05-04T02:45:44.103Z,13.60
2018-05-04T02:48:11.627Z,13.60
2018-05-04T02:50:39.127Z,13.60
2018-05-04T02:53:06.664Z,13.60
2018-05-04T02:55:34.216Z,13.60
2018-05-04T02:58:01.683Z,13.60
2018-05-04T03:00:29.217Z,13.60
2018-05-04T03:02:56.709Z,13.60
2018-05-04T03:05:24.238Z,13.60
2018-05-04T03:07:52.327Z,13.60
2018-05-04T03:10:19.855Z,13.50
2018-05-04T03:12:47.356Z,13.50
2018-05-04T03:15:14.896Z,13.50
2018-05-04T03:17:42.386Z,13.50
2018-05-04T03:20:09.921Z,13.50
2018-05-04T03:22:37.432Z,13.50
2018-05-04T03:25:04.974Z,13.40
2018-05-04T03:27:32.548Z,13.40
2018-05-04T03:30:00.081Z,13.40
2018-05-04T03:32:27.575Z,13.40
2018-05-04T03:34:55.106Z,13.40
2018-05-04T03:37:22.618Z,13.30
2018-05-04T03:39:50.974Z,13.30
2018-05-04T03:42:18.514Z,13.30
2018-05-04T03:44:46.015Z,13.30
2018-05-04T03:47:13.554Z,13.30
2018-05-04T03:49:41.044Z,13.20
2018-05-04T03:52:08.605Z,13.30
2018-05-04T03:54:36.090Z,13.30
2018-05-04T03:57:15.440Z,13.20
2018-05-04T03:59:55.443Z,13.20
2018-05-04T04:02:34.780Z,13.20
2018-05-04T04:05:02.879Z,13.20
2018-05-04T04:07:30.405Z,13.20
2018-05-04T04:09:58.057Z,13.20
2018-05-04T04:12:25.591Z,13.20
2018-05-04T04:14:53.846Z,13.20
2018-05-04T04:17:21.397Z,13.20
2018-05-04T04:19:48.895Z,13.20
2018-05-04T04:22:16.434Z,13.20
2018-05-04T04:24:44.738Z,13.20
2018-05-04T04:27:12.241Z,13.20
2018-05-04T04:29:39.774Z,13.20
2018-05-04T04:32:07.306Z,13.20
2018-05-04T04:34:34.842Z,13.20
2018-05-04T04:37:02.350Z,13.10
2018-05-04T04:39:29.900Z,13.10
2018-05-04T04:41:57.393Z,13.10
2018-05-04T04:44:24.937Z,13.10
2018-05-04T04:46:52.438Z,13.10
2018-05-04T04:49:20.729Z,13.10
2018-05-04T04:51:48.995Z,13.10
2018-05-04T04:54:17.297Z,13.10
2018-05-04T04:56:44.817Z,13.00
2018-05-04T04:59:12.351Z,13.10
2018-05-04T05:01:39.848Z,13.10
2018-05-04T05:04:08.158Z,13.10
2018-05-04T05:06:37.561Z,13.10
2018-05-04T05:09:05.108Z,13.10
2018-05-04T05:11:32.664Z,13.10
2018-05-04T05:14:00.165Z,13.20
2018-05-04T05:16:27.781Z,13.20
2018-05-04T05:18:55.295Z,13.30
2018-05-04T05:21:22.853Z,13.40
2018-05-04T05:23:50.439Z,13.40
2018-05-04T05:26:18.746Z,13.50
2018-05-04T05:28:46.311Z,13.50
2018-05-04T05:31:13.851Z,13.60
2018-05-04T05:33:41.335Z,13.60
2018-05-04T05:36:08.887Z,13.70
2018-05-04T05:38:36.420Z,13.70
2018-05-04T05:41:04.726Z,13.70
2018-05-04T05:43:32.225Z,13.70
2018-05-04T05:45:59.757Z,13.80
2018-05-04T05:48:27.246Z,13.80
2018-05-04T05:50:54.805Z,13.80
2018-05-04T05:53:22.294Z,13.80
2018-05-04T05:55:49.842Z,13.90
2018-05-04T05:58:18.095Z,13.90
2018-05-04T06:00:45.634Z,13.90
2018-05-04T06:03:13.123Z,14.00
2018-05-04T06:05:40.659Z,14.00
2018-05-04T06:08:08.168Z,14.00
2018-05-04T06:10:35.755Z,14.00
2018-05-04T06:13:03.249Z,14.00
2018-05-04T06:15:30.783Z,14.10
2018-05-04T06:17:58.283Z,14.10
2018-05-04T06:20:25.814Z,14.10
2018-05-04T06:22:53.312Z,14.10
2018-05-04T06:25:21.606Z,14.20
2018-05-04T06:27:49.106Z,14.20
2018-05-04T06:30:16.641Z,14.30
2018-05-04T06:32:44.140Z,14.30
2018-05-04T06:35:11.688Z,14.40
2018-05-04T06:37:39.183Z,14.50
2018-05-04T06:40:06.734Z,14.40
2018-05-04T06:42:34.998Z,14.60
2018-05-04T06:45:03.314Z,14.60
2018-05-04T06:47:30.814Z,14.60
2018-05-04T06:49:58.342Z,14.70
2018-05-04T06:52:25.846Z,14.70
2018-05-04T06:54:53.373Z,14.80
2018-05-04T06:57:20.883Z,14.80
2018-05-04T06:59:49.183Z,14.80
2018-05-04T07:02:16.690Z,14.80
2018-05-04T07:04:44.219Z,14.80
2018-05-04T07:07:11.709Z,14.80
2018-05-04T07:09:39.212Z,14.80
2018-05-04T07:12:06.981Z,14.90
2018-05-04T07:14:34.708Z,14.90
2018-05-04T07:17:03.006Z,15.00
2018-05-04T07:19:30.522Z,15.00
2018-05-04T07:21:58.112Z,15.00
2018-05-04T07:24:26.421Z,15.20
2018-05-04T07:26:53.967Z,15.20
2018-05-04T07:29:21.473Z,15.40
2018-05-04T07:31:49.059Z,15.60
2018-05-04T07:34:16.546Z,15.80
2018-05-04T07:36:44.080Z,15.90
2018-05-04T07:39:12.352Z,16.20
2018-05-04T07:41:40.634Z,16.20
2018-05-04T07:44:08.909Z,16.30
2018-05-04T07:46:37.220Z,16.50
2018-05-04T07:49:04.715Z,16.50
2018-05-04T07:51:32.245Z,16.60
2018-05-04T07:53:59.740Z,16.60
2018-05-04T07:56:36.925Z,17.00
2018-05-04T07:59:04.425Z,17.10
2018-05-04T08:01:31.934Z,17.20
2018-05-04T08:03:59.491Z,17.40
2018-05-04T08:06:26.993Z,17.50
2018-05-04T08:08:54.527Z,17.50
2018-05-04T08:11:22.799Z,17.40
2018-05-04T08:13:51.102Z,17.30
2018-05-04T08:16:18.620Z,17.30
2018-05-04T08:18:47.716Z,17.30
2018-05-04T08:21:16.730Z,17.00
2018-05-04T08:23:45.031Z,17.00
2018-05-04T08:26:12.521Z,17.00
2018-05-04T08:28:40.059Z,16.90
2018-05-04T08:31:07.653Z,16.90
2018-05-04T08:33:35.195Z,16.90
2018-05-04T08:36:02.700Z,16.90
2018-05-04T08:38:31.067Z,17.20
2018-05-04T08:40:58.783Z,17.10
2018-05-04T08:43:26.307Z,17.30
2018-05-04T08:45:54.585Z,17.50
2018-05-04T08:48:23.234Z,17.50
2018-05-04T08:50:50.862Z,17.40
2018-05-04T08:53:18.303Z,17.60
2018-05-04T08:55:45.838Z,17.60
2018-05-04T08:58:14.104Z,17.80
2018-05-04T09:00:41.656Z,17.80
2018-05-04T09:03:09.148Z,17.80
2018-05-04T09:05:36.692Z,17.80
2018-05-04T09:08:04.973Z,18.00
2018-05-04T09:10:33.383Z,18.10
2018-05-04T09:13:00.877Z,18.10
2018-05-04T09:15:28.431Z,18.20
2018-05-04T09:17:55.918Z,18.10
2018-05-04T09:20:23.472Z,18.20
2018-05-04T09:22:51.905Z,18.60
2018-05-04T09:25:19.656Z,18.50
2018-05-04T09:27:46.994Z,18.70
2018-05-04T09:30:14.529Z,18.70
2018-05-04T09:32:42.807Z,18.70
2018-05-04T09:35:10.326Z,18.70
2018-05-04T09:37:37.876Z,18.70
2018-05-04T09:40:05.393Z,18.80
2018-05-04T09:42:32.942Z,18.80
2018-05-04T09:45:01.209Z,18.60
2018-05-04T09:47:28.761Z,18.60
2018-05-04T09:49:56.290Z,18.60
2018-05-04T09:52:23.845Z,18.60
2018-05-04T09:54:51.354Z,18.60
2018-05-04T09:57:19.024Z,18.60
2018-05-04T09:59:46.665Z,18.50
2018-05-04T10:02:14.202Z,18.50
2018-05-04T10:04:41.713Z,18.50
2018-05-04T10:07:10.068Z,18.40
2018-05-04T10:09:37.727Z,18.40
2018-05-04T10:12:05.231Z,18.30
2018-05-04T10:14:32.782Z,18.30
2018-05-04T10:17:00.338Z,18.30
2018-05-04T10:19:27.835Z,18.30
2018-05-04T10:21:55.332Z,18.20
2018-05-04T10:24:23.649Z,18.20
2018-05-04T10:26:51.156Z,18.20
2018-05-04T10:29:18.700Z,18.20
2018-05-04T10:31:46.206Z,18.20
2018-05-04T10:34:14.531Z,18.10
2018-05-04T10:36:42.174Z,18.10
2018-05-04T10:39:09.735Z,18.10
2018-05-04T10:41:37.264Z,18.10
2018-05-04T10:44:04.798Z,18.10
2018-05-04T10:46:32.308Z,18.20
2018-05-04T10:48:59.857Z,18.10
2018-05-04T10:51:27.362Z,18.10
2018-05-04T10:53:54.891Z,18.10
2018-05-04T10:56:22.474Z,18.10
2018-05-04T10:58:50.030Z,18.10
2018-05-04T11:01:17.642Z,18.10
2018-05-04T11:03:45.141Z,18.20
2018-05-04T11:06:12.669Z,18.20
2018-05-04T11:08:40.172Z,18.20
2018-05-04T11:11:09.237Z,18.10
2018-05-04T11:13:36.772Z,18.10
2018-05-04T11:16:04.344Z,18.10
2018-05-04T11:18:31.859Z,18.00
2018-05-04T11:21:00.896Z,18.00
2018-05-04T11:23:28.393Z,18.00
2018-05-04T11:25:56.174Z,18.00
2018-05-04T11:28:24.457Z,18.00
2018-05-04T11:30:52.793Z,17.90
2018-05-04T11:33:20.279Z,17.90
2018-05-04T11:35:48.003Z,17.90
2018-05-04T11:38:15.529Z,17.80
2018-05-04T11:40:43.804Z,17.70
2018-05-04T11:43:12.178Z,17.70
2018-05-04T11:45:39.735Z,17.70
2018-05-04T11:48:07.992Z,17.60
2018-05-04T11:50:36.300Z,17.60
2018-05-04T11:53:03.879Z,17.60
2018-05-04T11:55:31.386Z,17.60
2018-05-04T11:57:58.962Z,17.50
2018-05-04T12:00:26.465Z,17.60
2018-05-04T12:02:54.018Z,17.50
2018-05-04T12:05:21.529Z,17.50
2018-05-04T12:07:49.065Z,17.40
2018-05-04T12:10:16.568Z,17.40
2018-05-04T12:12:44.875Z,17.30
2018-05-04T12:15:12.388Z,17.30
2018-05-04T12:17:39.930Z,17.30
2018-05-04T12:20:07.436Z,17.30
2018-05-04T12:22:34.984Z,17.20
2018-05-04T12:25:02.502Z,17.20
2018-05-04T12:27:30.251Z,17.20
2018-05-04T12:29:57.758Z,17.20
2018-05-04T12:32:25.309Z,17.20
2018-05-04T12:34:53.562Z,17.30
2018-05-04T12:37:21.070Z,17.20
2018-05-04T12:39:48.618Z,17.30
2018-05-04T12:42:16.119Z,17.30
2018-05-04T12:44:43.654Z,17.30
2018-05-04T12:47:11.158Z,17.30
2018-05-04T12:49:38.695Z,17.30
2018-05-04T12:52:06.216Z,17.50
2018-05-04T12:54:33.754Z,17.80
2018-05-04T12:57:01.264Z,18.10
2018-05-04T12:59:28.800Z,18.60
2018-05-04T13:01:56.307Z,19.20
2018-05-04T13:04:23.943Z,19.80
2018-05-04T13:06:51.365Z,20.90
2018-05-04T13:09:18.907Z,21.60
2018-05-04T13:11:46.417Z,22.20
2018-05-04T13:14:13.962Z,22.70
2018-05-04T13:16:41.483Z,23.20
2018-05-04T13:19:09.052Z,23.60
2018-05-04T13:21:37.340Z,24.50
2018-05-04T13:24:04.848Z,24.40
2018-05-04T13:26:32.402Z,25.00
2018-05-04T13:28:59.904Z,25.40
2018-05-04T13:31:28.215Z,26.20
2018-05-04T13:33:55.713Z,26.20
2018-05-04T13:36:23.256Z,26.60
2018-05-04T13:38:50.761Z,27.10
2018-05-04T13:41:19.063Z,28.00
2018-05-04T13:43:46.573Z,28.00
2018-05-04T13:46:14.922Z,28.30
2018-05-04T13:48:42.502Z,28.30
2018-05-04T13:51:10.048Z,28.60
2018-05-04T13:53:37.653Z,28.90
2018-05-04T13:56:05.195Z,29.10
2018-05-04T13:58:33.474Z,30.00
2018-05-04T14:01:01.857Z,30.10
2018-05-04T14:03:29.321Z,30.10
2018-05-04T14:05:56.870Z,30.20
2018-05-04T14:08:24.392Z,30.30
2018-05-04T14:10:51.947Z,30.40
2018-05-04T14:13:19.500Z,30.70
2018-05-04T14:15:47.002Z,31.00
2018-05-04T14:18:15.465Z,29.80
2018-05-04T14:20:42.980Z,29.80
2018-05-04T14:23:10.551Z,28.70
2018-05-04T14:25:38.051Z,27.60
2018-05-04T14:28:07.115Z,25.60
2018-05-04T14:30:34.611Z,25.60
2018-05-04T14:33:02.924Z,24.30
2018-05-04T14:35:30.426Z,24.20
2018-05-04T14:37:57.955Z,23.60
2018-05-04T14:40:25.490Z,23.20
2018-05-04T14:42:53.056Z,22.70
2018-05-04T14:45:20.581Z,22.30
2018-05-04T14:47:48.127Z,22.00
2018-05-04T14:50:15.941Z,21.70
2018-05-04T14:52:43.497Z,21.50
2018-05-04T14:55:11.022Z,21.30
2018-05-04T14:57:38.547Z,21.10
2018-05-04T15:00:06.118Z,21.10
2018-05-04T15:02:33.623Z,21.10
2018-05-04T15:05:01.184Z,21.40
2018-05-04T15:07:29.456Z,21.70
2018-05-04T15:09:57.755Z,22.50
2018-05-04T15:12:25.259Z,22.40
2018-05-04T15:14:52.805Z,23.00
2018-05-04T15:17:20.299Z,24.00
2018-05-04T15:19:48.627Z,25.80
2018-05-04T15:22:16.141Z,25.80
2018-05-04T15:24:44.455Z,28.10
2018-05-04T15:27:12.732Z,28.00
2018-05-04T15:29:40.448Z,27.90
2018-05-04T15:32:08.730Z,29.00
2018-05-04T15:34:37.156Z,29.70
2018-05-04T15:37:04.733Z,29.60
2018-05-04T15:39:32.319Z,30.30
2018-05-04T15:41:59.823Z,30.80
2018-05-04T15:44:27.314Z,31.10
2018-05-04T15:46:54.872Z,31.50
2018-05-04T15:49:22.387Z,31.70
2018-05-04T15:51:55.658Z,31.70
2018-05-04T15:54:23.155Z,32.00
2018-05-04T15:56:50.710Z,32.20
2018-05-04T15:59:18.212Z,32.50
2018-05-04T16:01:45.743Z,32.50
2018-05-04T16:04:13.243Z,32.60
2018-05-04T16:06:41.911Z,32.60
2018-05-04T16:09:09.413Z,32.60
2018-05-04T16:11:36.943Z,32.40
2018-05-04T16:14:05.218Z,29.80
2018-05-04T16:16:33.538Z,27.90
2018-05-04T16:19:01.041Z,27.80
2018-05-04T16:21:28.580Z,26.50
2018-05-04T16:23:56.080Z,25.40
2018-05-04T16:26:24.401Z,23.80
2018-05-04T16:28:51.982Z,23.70
2018-05-04T16:31:20.220Z,22.60
2018-05-04T16:33:47.722Z,22.50
2018-05-04T16:36:15.657Z,22.10
2018-05-04T16:38:43.335Z,21.70
2018-05-04T16:41:10.856Z,21.40
2018-05-04T16:43:38.376Z,21.00
2018-05-04T16:46:05.917Z,20.80
2018-05-04T16:48:39.188Z,20.50
2018-05-04T16:51:06.700Z,20.30
2018-05-04T16:53:34.234Z,20.10
2018-05-04T16:56:01.735Z,19.90
2018-05-04T16:58:30.040Z,19.70
2018-05-04T17:00:57.543Z,19.60
2018-05-04T17:03:26.598Z,19.40
2018-05-04T17:05:54.104Z,19.40
2018-05-04T17:08:21.654Z,19.30
2018-05-04T17:10:49.943Z,19.10
2018-05-04T17:13:18.251Z,19.00
2018-05-04T17:15:45.802Z,19.00
2018-05-04T17:18:14.043Z,18.80
2018-05-04T17:20:41.607Z,18.80
2018-05-04T17:23:09.858Z,18.70
2018-05-04T17:25:37.412Z,18.60
2018-05-04T17:28:04.911Z,18.60
2018-05-04T17:30:32.475Z,18.50
2018-05-04T17:33:00.745Z,18.40
2018-05-04T17:35:29.202Z,18.30
2018-05-04T17:37:56.715Z,18.30
2018-05-04T17:40:24.320Z,18.30
2018-05-04T17:42:52.444Z,18.20
2018-05-04T17:45:19.982Z,18.10
2018-05-04T17:47:47.628Z,18.10
2018-05-04T17:50:15.170Z,18.00
2018-05-04T17:52:42.669Z,18.00
2018-05-04T17:55:11.110Z,17.90
2018-05-04T17:57:38.578Z,17.90
2018-05-04T18:00:06.876Z,17.70
2018-05-04T18:02:35.163Z,17.70
2018-05-04T18:05:02.693Z,17.60
2018-05-04T18:07:31.735Z,17.50
2018-05-04T18:09:59.302Z,17.50
2018-05-04T18:12:26.789Z,17.50
2018-05-04T18:14:54.352Z,17.40
2018-05-04T18:17:21.930Z,17.30
2018-05-04T18:19:49.432Z,17.30
2018-05-04T18:22:16.978Z,17.20
2018-05-04T18:24:44.640Z,17.20
2018-05-04T18:27:12.130Z,17.10
2018-05-04T18:29:39.696Z,17.10
2018-05-04T18:32:07.190Z,17.00
2018-05-04T18:34:34.747Z,16.90
2018-05-04T18:37:05.573Z,16.80
2018-05-04T18:39:34.619Z,16.70
2018-05-04T18:42:02.201Z,16.80
2018-05-04T18:44:29.705Z,16.70
2018-05-04T18:46:57.250Z,16.70
2018-05-04T18:49:24.754Z,16.60
2018-05-04T18:51:52.360Z,16.60
2018-05-04T18:54:19.865Z,16.50
2018-05-04T18:56:47.368Z,16.50
2018-05-04T18:59:14.906Z,16.40
2018-05-04T19:01:42.423Z,16.40
2018-05-04T19:04:09.973Z,16.30
2018-05-04T19:06:38.246Z,16.30
2018-05-04T19:09:06.615Z,16.20
2018-05-04T19:11:34.138Z,16.20
2018-05-04T19:14:01.824Z,16.20
2018-05-04T19:16:29.319Z,16.10
2018-05-04T19:18:57.659Z,16.00
2018-05-04T19:21:25.165Z,16.00
2018-05-04T19:23:52.703Z,16.00
2018-05-04T19:26:21.016Z,15.90
2018-05-04T19:28:48.596Z,15.90
2018-05-04T19:31:16.108Z,15.90
2018-05-04T19:33:44.418Z,15.80
2018-05-04T19:36:11.908Z,15.80
2018-05-04T19:38:39.461Z,15.80
2018-05-04T19:41:06.942Z,15.70
2018-05-04T19:43:35.310Z,15.70
2018-05-04T19:46:02.822Z,15.70
2018-05-04T19:48:30.380Z,15.70
2018-05-04T19:50:58.389Z,15.60
2018-05-04T19:53:25.943Z,15.60
2018-05-04T19:55:53.492Z,15.60
2018-05-04T19:58:21.061Z,15.50
2018-05-04T20:00:48.631Z,15.50
2018-05-04T20:03:16.136Z,15.50
2018-05-04T20:05:43.690Z,15.50
2018-05-04T20:08:11.209Z,15.40
2018-05-04T20:10:38.799Z,15.40
2018-05-04T20:13:06.313Z,15.40
2018-05-04T20:15:33.854Z,15.30
2018-05-04T20:18:01.360Z,15.30
2018-05-04T20:20:29.005Z,15.30
2018-05-04T20:22:57.406Z,15.30
2018-05-04T20:25:28.149Z,15.20
2018-05-04T20:27:55.754Z,15.20
2018-05-04T20:30:23.322Z,15.20
2018-05-04T20:32:50.822Z,15.20
2018-05-04T20:35:18.476Z,15.10
2018-05-04T20:37:46.170Z,15.10
2018-05-04T20:40:14.122Z,15.10
2018-05-04T20:42:42.470Z,15.10
2018-05-04T20:45:10.778Z,15.00
2018-05-04T20:47:38.447Z,15.00
2018-05-04T20:50:06.007Z,15.00
2018-05-04T20:52:34.579Z,15.00
2018-05-04T20:55:02.323Z,15.00
2018-05-04T20:57:30.631Z,14.90
2018-05-04T20:59:58.908Z,14.90
2018-05-04T21:02:27.237Z,14.90
2018-05-04T21:04:54.938Z,14.90
2018-05-04T21:07:23.376Z,14.90
2018-05-04T21:09:50.936Z,14.90
2018-05-04T21:12:19.282Z,14.90
2018-05-04T21:14:46.829Z,14.90
2018-05-04T21:17:14.434Z,14.80
2018-05-04T21:19:42.075Z,14.80
2018-05-04T21:22:09.628Z,14.80
2018-05-04T21:24:37.169Z,14.70
2018-05-04T21:27:04.684Z,14.70
2018-05-04T21:29:33.104Z,14.70
2018-05-04T21:32:02.157Z,14.60
2018-05-04T21:34:30.395Z,14.60
2018-05-04T21:37:01.195Z,14.50
2018-05-04T21:39:30.044Z,14.40
2018-05-04T21:41:57.550Z,14.30
2018-05-04T21:44:25.862Z,14.30
2018-05-04T21:46:53.387Z,14.30
2018-05-04T21:49:20.957Z,14.20
2018-05-04T21:51:48.509Z,14.20
2018-05-04T21:54:16.039Z,14.10
2018-05-04T21:56:44.761Z,14.00
2018-05-04T21:59:12.312Z,14.00
2018-05-04T22:01:39.857Z,14.00
2018-05-04T22:04:08.255Z,13.90
2018-05-04T22:06:35.820Z,13.90
2018-05-04T22:09:03.484Z,13.90
2018-05-04T22:11:31.051Z,13.90
2018-05-04T22:13:58.773Z,13.80
2018-05-04T22:16:28.021Z,13.80
2018-05-04T22:18:55.532Z,13.80
2018-05-04T22:21:23.873Z,13.70
2018-05-04T22:23:51.384Z,13.70
2018-05-04T22:26:18.955Z,13.70
2018-05-04T22:28:46.961Z,13.70
2018-05-04T22:31:14.512Z,13.60
2018-05-04T22:33:42.043Z,13.60
2018-05-04T22:36:09.577Z,13.50
2018-05-04T22:38:37.852Z,13.50
2018-05-04T22:41:06.151Z,13.50
2018-05-04T22:43:33.643Z,13.50
2018-05-04T22:46:01.219Z,13.50
2018-05-04T22:48:28.745Z,13.50
2018-05-04T22:50:56.291Z,13.40
2018-05-04T22:53:23.824Z,13.40
2018-05-04T22:55:52.146Z,13.30
2018-05-04T22:58:19.643Z,13.30
2018-05-04T23:00:47.362Z,13.30
2018-05-04T23:03:14.884Z,13.20
2018-05-04T23:05:43.191Z,13.20
2018-05-04T23:08:10.717Z,13.10
2018-05-04T23:10:38.266Z,13.10
2018-05-04T23:13:05.837Z,13.00
2018-05-04T23:15:33.344Z,13.00
2018-05-04T23:18:00.850Z,13.00
2018-05-04T23:20:28.352Z,13.00
2018-05-04T23:22:55.893Z,13.00
2018-05-04T23:25:23.434Z,13.00
2018-05-04T23:27:51.677Z,13.00
2018-05-04T23:30:19.185Z,13.00
2018-05-04T23:32:46.728Z,13.00
2018-05-04T23:35:14.219Z,12.90
2018-05-04T23:37:41.753Z,13.00
2018-05-04T23:40:10.026Z,12.90
2018-05-04T23:42:38.398Z,12.90
2018-05-04T23:45:05.943Z,12.80
2018-05-04T23:47:33.470Z,12.80
2018-05-04T23:50:00.960Z,12.90
2018-05-04T23:52:28.483Z,12.80
2018-05-04T23:54:56.016Z,12.80
2018-05-04T23:57:23.521Z,12.80
2018-05-04T23:59:51.019Z,12.80
